Pratica Di Mare, Italy

12:24 PM CEST on September 30, 2016 (GMT +0200)
Via di Ponente | | Change Station

Elev 9 ft 41.63 °N, 12.47 °E | Updated 3 minutes ago

Scattered Clouds
Scattered Clouds
73.4 °F
Feels Like 76 °F
N
1.9
Wind Variable Wind from SW
Gusts 4.3 mph

Today
High -- | Low -- °F
--% Chance of Precip.
Yesterday
High -- | Low -- °F
Precip. -- in
Pressure 30.21 in
Visibility 6.2 miles
Clouds Scattered Clouds 2500 ft
Heat Index 76 °F
Dew Point 62 °F
Humidity 68%
Rainfall 0.00 in
Snow Depth Not available.
7:06 AM 6:53 PM
Waning Crescent, 0% visible
METAR LIRE 300955Z 28003KT 9999 SCT025 23/14 Q1023 RMK SCT VIS MIN 9999 WIND THR13 24004KT WIND THR31 21004KT BLU
Pressure 30.21 in
Visibility 6.2 miles
Clouds Scattered Clouds 2500 ft
Heat Index 76 °F
Dew Point 62 °F
Humidity 68%
Rainfall 0.00 in
Snow Depth Not available.
7:06 AM 6:53 PM
Waning Crescent, 0% visible
METAR LIRE 300955Z 28003KT 9999 SCT025 23/14 Q1023 RMK SCT VIS MIN 9999 WIND THR13 24004KT WIND THR31 21004KT BLU

10-Day Weather Forecast

×

Almanac

Astronomy

Sep. 30, 2016 Rise Set
Actual Time
Civil Twilight
Nautical Twilight
Astronomical Twilight
Moon
Length of Visible Light
Length of Day
Tomorrow will be .
, % of the Moon is Illuminated

Today's Extremes

Country Highs Country Lows

Community

WunderPhotos

Upload Photos

1,942,687 photos uploaded!

WunderBlog® & News

Nearby

Air Quality

  Air Quality AQ Index Pollutant
Not available.

Snow Depth

Station Depth Elevation

Earthquake Activity

City Distance Mag. Time & Date
Minimum magnitude displayed is 2.5.

Coastal Water Temperatures

Place Temperature

Stations

Nearby Weather Stations

Station Location Temp. Windchill Dew Point Humidity Wind Precip. Elev Updated Type